Time;durP1;ratioP1;P1;durP2;ratioP2;P2;SDS_P1;SDS_P2;PMS_P1;PMS_P2;Temp;Humidity;BMP_temperature;BMP_pressure;BME280_temperature;BME280_humidity;BME280_pressure;Samples;Min_cycle;Max_cycle;Signal;HPM_P1;HPM_P2
2022/11/05 00:09:29;;;;;;;3.33;2.05;;;;;;;11.08;59.79;98971.53;4456885;32;20084;-89
2022/11/05 00:17:37;;;;;;;3.12;2.45;;;;;;;10.90;59.78;98962.84;4435766;32;20107;-89
2022/11/05 00:20:03;;;;;;;2.95;1.73;;;;;;;10.91;59.77;98955.88;4413650;32;20156;-88
2022/11/05 00:25:12;;;;;;;3.03;1.95;;;;;;;10.95;59.78;98950.44;4430174;32;20158;-89
2022/11/05 00:27:38;;;;;;;5.22;2.50;;;;;;;10.98;59.78;98950.31;4426282;32;20484;-89
2022/11/05 00:30:04;;;;;;;2.80;1.90;;;;;;;10.90;59.78;98952.44;4413397;32;20113;-89
2022/11/05 00:32:31;;;;;;;2.97;2.08;;;;;;;10.93;59.78;98951.44;4410753;32;20134;-90
2022/11/05 00:34:56;;;;;;;7.15;2.58;;;;;;;10.82;59.77;98945.84;4421230;32;20093;-89
2022/11/05 00:37:22;;;;;;;3.20;2.00;;;;;;;10.88;59.78;98951.63;4423656;32;20128;-91
2022/11/05 00:39:47;;;;;;;3.00;2.08;;;;;;;10.93;59.78;98951.44;4400578;32;20153;-90
2022/11/05 00:44:59;;;;;;;3.83;2.60;;;;;;;10.70;59.76;98960.28;4418327;32;20170;-90
2022/11/05 00:50:09;;;;;;;5.85;1.73;;;;;;;10.57;59.76;98959.13;4418319;32;20115;-91
2022/11/05 00:55:19;;;;;;;2.50;1.90;;;;;;;10.43;59.75;98955.41;4418780;32;20155;-91
2022/11/05 00:57:45;;;;;;;3.37;2.20;;;;;;;10.45;59.75;98950.13;4402173;32;20433;-90
2022/11/05 01:00:11;;;;;;;3.62;2.10;;;;;;;10.44;59.75;98941.47;4414302;32;20541;-91
2022/11/05 01:02:36;;;;;;;3.03;1.95;;;;;;;10.45;59.76;98948.38;4414435;32;20709;-91
2022/11/05 01:05:02;;;;;;;3.20;2.08;;;;;;;10.29;59.74;98949.09;4401394;32;20572;-92
2022/11/05 01:07:27;;;;;;;3.37;2.10;;;;;;;10.31;59.74;98960.28;4401652;32;20152;-91
2022/11/05 01:09:53;;;;;;;2.83;1.83;;;;;;;10.48;59.76;98963.00;4413799;32;20123;-91
2022/11/05 01:12:18;;;;;;;3.47;2.17;;;;;;;10.30;59.74;98961.19;4413879;32;20228;-91
2022/11/05 01:14:44;;;;;;;3.35;2.03;;;;;;;10.30;59.74;98967.25;4413931;32;20152;-91
2022/11/05 01:17:09;;;;;;;3.75;2.28;;;;;;;10.31;59.74;98963.72;4413545;32;28257;-91
2022/11/05 01:19:35;;;;;;;5.10;2.50;;;;;;;10.35;59.75;98972.25;4413686;32;21735;-91
2022/11/05 01:22:00;;;;;;;5.60;2.90;;;;;;;10.32;59.75;98974.97;4413869;32;20105;-90
2022/11/05 01:24:26;;;;;;;6.82;2.45;;;;;;;10.39;59.75;98971.19;4413385;32;20534;-91
2022/11/05 01:26:51;;;;;;;4.30;2.70;;;;;;;10.39;59.75;98968.59;4413237;32;20149;-89
2022/11/05 01:29:16;;;;;;;3.17;2.40;;;;;;;10.40;59.75;98963.31;4413177;32;20136;-90
2022/11/05 01:31:42;;;;;;;3.95;2.72;;;;;;;10.23;59.74;98960.62;4426153;32;20764;-89
2022/11/05 01:34:07;;;;;;;3.78;2.55;;;;;;;10.21;59.74;98964.19;4413456;32;20148;-88
2022/11/05 01:36:33;;;;;;;4.55;2.67;;;;;;;10.26;59.75;98960.50;4426163;32;20125;-89
2022/11/05 01:38:58;;;;;;;4.57;2.90;;;;;;;10.15;59.74;98963.50;4413136;32;20157;-89
2022/11/05 01:41:24;;;;;;;5.70;3.08;;;;;;;10.08;59.73;98956.03;4413146;32;29258;-88
2022/11/05 01:43:51;;;;;;;5.03;3.47;;;;;;;10.09;59.74;98958.56;4426455;32;20101;-89
2022/11/05 01:46:18;;;;;;;7.32;4.12;;;;;;;10.09;59.74;98971.56;4413508;32;20137;-89
2022/11/05 01:48:44;;;;;;;4.95;3.05;;;;;;;10.20;59.74;98976.34;4413643;32;20135;-89
2022/11/05 01:51:12;;;;;;;6.80;3.85;;;;;;;10.34;59.75;98983.56;4413293;32;20117;-89
2022/11/05 01:53:43;;;;;;;4.60;3.37;;;;;;;10.37;59.75;98992.06;4413707;32;20117;-90
2022/11/05 01:56:15;;;;;;;4.70;3.33;;;;;;;10.47;59.76;99000.34;4413395;32;20182;-90
2022/11/05 01:58:49;;;;;;;6.43;3.22;;;;;;;10.56;59.76;99001.69;4413522;32;20856;-91
2022/11/05 02:01:15;;;;;;;9.70;3.72;;;;;;;10.22;59.74;98997.09;4413351;32;20113;-89
2022/11/05 02:03:41;;;;;;;5.65;3.83;;;;;;;10.37;59.75;98988.63;4425599;32;20153;-89
2022/11/05 02:06:08;;;;;;;4.75;3.30;;;;;;;10.34;59.75;98980.97;4413495;32;20157;-90
2022/11/05 02:08:56;;;;;;;7.20;4.22;;;;;;;10.40;59.75;98980.69;4426241;32;20223;-89
2022/11/05 02:11:22;;;;;;;4.97;3.28;;;;;;;10.19;59.74;98986.81;4413096;32;20524;-89
2022/11/05 02:13:47;;;;;;;6.03;3.90;;;;;;;10.14;59.74;98986.97;4413112;32;20113;-90
2022/11/05 02:16:39;;;;;;;7.47;3.35;;;;;;;10.20;59.74;98991.09;4425972;32;20113;-90
2022/11/05 02:19:17;;;;;;;6.10;3.72;;;;;;;10.17;59.73;99002.44;4413098;32;20124;-88
2022/11/05 02:22:02;;;;;;;6.12;3.03;;;;;;;10.07;59.73;99002.00;4425973;32;20098;-89
2022/11/05 02:24:48;;;;;;;5.28;3.28;;;;;;;9.91;59.73;99002.69;4427605;32;20170;-90
2022/11/05 02:27:34;;;;;;;6.53;3.90;;;;;;;9.99;59.73;99008.44;4413038;32;20226;-89
2022/11/05 02:30:05;;;;;;;4.90;3.12;;;;;;;10.08;59.73;98997.63;4425639;32;20157;-89
2022/11/05 02:32:44;;;;;;;6.05;3.97;;;;;;;9.88;59.72;99006.25;4425681;32;20163;-89
2022/11/05 02:35:25;;;;;;;6.47;4.05;;;;;;;9.70;59.71;99004.41;4425884;32;20109;-88
2022/11/05 02:38:18;;;;;;;6.32;4.15;;;;;;;9.81;59.72;98994.44;4425680;32;20185;-88
2022/11/05 02:40:56;;;;;;;6.72;4.28;;;;;;;9.79;59.73;99001.44;4422237;32;20165;-88
2022/11/05 02:43:35;;;;;;;5.90;4.10;;;;;;;9.59;59.71;98997.06;4414054;32;20124;-88
2022/11/05 02:46:27;;;;;;;8.90;4.37;;;;;;;9.65;59.71;99011.53;4413015;32;20121;-88
2022/11/05 02:49:25;;;;;;;4.93;3.45;;;;;;;9.61;59.71;99003.03;4422929;32;20097;-89
2022/11/05 02:51:56;;;;;;;5.18;3.55;;;;;;;9.79;59.71;99012.69;4438567;32;20115;-89
2022/11/05 02:54:23;;;;;;;5.55;3.75;;;;;;;9.78;59.71;99011.00;4414474;32;20140;-89
2022/11/05 02:56:50;;;;;;;4.93;3.40;;;;;;;9.66;59.72;99005.44;4432647;32;20112;-91
2022/11/05 02:59:15;;;;;;;7.40;3.75;;;;;;;9.70;59.71;99007.88;4441282;32;20093;-90
2022/11/05 03:01:40;;;;;;;6.53;4.25;;;;;;;9.69;59.72;99007.91;4423260;32;20473;-89
2022/11/05 03:04:07;;;;;;;6.50;4.00;;;;;;;9.76;59.71;99010.22;4429441;32;28251;-89
2022/11/05 03:06:38;;;;;;;5.87;3.95;;;;;;;9.69;59.71;99013.09;4413916;32;20143;-88
2022/11/05 03:09:13;;;;;;;6.97;3.50;;;;;;;9.57;59.70;99013.59;4425528;32;20129;-89
2022/11/05 03:11:53;;;;;;;5.10;3.78;;;;;;;9.77;59.72;99011.06;4425246;32;20207;-88
2022/11/05 03:14:50;;;;;;;6.53;3.95;;;;;;;9.74;59.72;99013.78;4400531;32;20777;-89
2022/11/05 03:17:30;;;;;;;9.25;4.65;;;;;;;9.83;59.72;99016.00;4425726;32;20170;-89
2022/11/05 03:19:55;;;;;;;6.65;3.25;;;;;;;9.92;59.72;99019.97;4425660;32;20138;-89
2022/11/05 03:22:34;;;;;;;6.20;4.07;;;;;;;10.05;59.74;99018.56;4425297;32;20097;-90
2022/11/05 03:25:02;;;;;;;6.03;3.75;;;;;;;9.85;59.72;99014.19;4412955;32;20457;-89
2022/11/05 03:27:32;;;;;;;9.20;3.67;;;;;;;9.98;59.73;99028.38;4412867;32;20128;-90
2022/11/05 03:30:00;;;;;;;5.03;3.12;;;;;;;9.93;59.73;99027.72;4412853;32;20167;-90
2022/11/05 03:32:25;;;;;;;5.65;3.53;;;;;;;9.80;59.71;99034.31;4412582;32;20390;-89
2022/11/05 03:34:53;;;;;;;5.37;3.33;;;;;;;9.78;59.72;99030.94;4425154;32;20121;-89
2022/11/05 03:37:19;;;;;;;6.10;3.80;;;;;;;9.83;59.72;99032.44;4412845;32;20178;-88
2022/11/05 03:39:53;;;;;;;4.90;2.95;;;;;;;9.90;59.72;99038.22;4400114;32;20117;-89
2022/11/05 03:42:20;;;;;;;5.70;3.58;;;;;;;9.79;59.73;99037.84;4412658;32;20116;-90
2022/11/05 03:44:50;;;;;;;7.95;3.45;;;;;;;10.00;59.73;99031.78;4412852;32;20115;-89
2022/11/05 03:47:21;;;;;;;6.37;3.10;;;;;;;9.93;59.73;99038.09;4412571;32;20454;-90
2022/11/05 03:50:16;;;;;;;5.93;3.42;;;;;;;9.82;59.72;99038.56;4412910;32;20100;-90
2022/11/05 03:52:49;;;;;;;6.50;3.53;;;;;;;9.81;59.73;99036.88;4397731;32;20124;-89
2022/11/05 03:55:14;;;;;;;5.90;3.42;;;;;;;9.81;59.72;99046.41;4400047;32;20463;-87
2022/11/05 03:57:40;;;;;;;5.30;3.45;;;;;;;9.81;59.72;99041.22;4412820;32;20104;-91
2022/11/05 04:00:07;;;;;;;6.07;3.28;;;;;;;9.77;59.71;99050.06;4425645;32;20112;-91
2022/11/05 04:02:33;;;;;;;4.87;3.30;;;;;;;9.67;59.71;99043.50;4412755;32;20089;-89
2022/11/05 04:04:58;;;;;;;9.35;3.78;;;;;;;9.73;59.72;99051.09;4424655;32;35938;-91
2022/11/05 04:18:20;;;;;;;4.85;3.08;;;;;;;9.75;59.72;99025.87;4427335;32;20162;-89
2022/11/05 04:26:13;;;;;;;5.20;3.00;;;;;;;9.69;59.71;99033.91;4426874;32;20488;-88
2022/11/05 04:31:23;;;;;;;5.05;3.10;;;;;;;9.46;59.70;99038.28;4426495;32;20181;-88
2022/11/05 04:33:48;;;;;;;6.00;3.25;;;;;;;9.48;59.70;99028.66;4421773;32;24031;-89
2022/11/05 04:36:13;;;;;;;4.65;2.75;;;;;;;9.72;59.71;99028.59;4421357;32;20144;-88
2022/11/05 04:38:39;;;;;;;4.72;3.22;;;;;;;9.71;59.71;99021.72;4421217;32;20235;-88
2022/11/05 04:41:12;;;;;;;5.25;3.20;;;;;;;9.63;59.70;99015.97;4410651;32;26943;-88
2022/11/05 04:43:37;;;;;;;6.12;3.78;;;;;;;9.51;59.71;99018.16;4424356;32;20097;-87
2022/11/05 04:46:02;;;;;;;4.90;3.22;;;;;;;9.65;59.72;99025.37;4410952;32;22081;-88
2022/11/05 04:48:28;;;;;;;4.25;3.20;;;;;;;9.58;59.71;99028.28;4411135;32;20129;-88
2022/11/05 04:50:53;;;;;;;6.12;3.80;;;;;;;9.54;59.70;99022.38;4410738;32;29601;-89
2022/11/05 04:53:19;;;;;;;5.00;3.30;;;;;;;9.38;59.69;99035.09;4411045;32;20176;-90
2022/11/05 04:55:44;;;;;;;5.90;3.67;;;;;;;9.42;59.70;99038.41;4411806;32;20278;-90
2022/11/05 04:58:10;;;;;;;5.93;3.90;;;;;;;9.61;59.71;99038.56;4423444;32;33256;-89
2022/11/05 05:00:35;;;;;;;5.05;3.25;;;;;;;9.66;59.72;99032.25;4424073;32;20153;-89
2022/11/05 05:03:01;;;;;;;4.50;2.92;;;;;;;9.79;59.71;99030.03;4410808;32;21154;-89
2022/11/05 05:05:26;;;;;;;4.00;2.78;;;;;;;9.85;59.72;99032.37;4422078;32;28041;-87
2022/11/05 05:07:51;;;;;;;4.75;2.97;;;;;;;9.76;59.71;99037.97;4411426;32;20403;-88
2022/11/05 05:10:17;;;;;;;4.97;2.90;;;;;;;9.86;59.72;99031.47;4410263;32;32275;-88
2022/11/05 05:12:42;;;;;;;4.90;3.10;;;;;;;9.70;59.71;99028.66;4423874;32;20483;-89
2022/11/05 05:15:08;;;;;;;7.85;3.22;;;;;;;9.80;59.72;99019.56;4423897;32;20089;-89
2022/11/05 05:17:33;;;;;;;5.85;3.50;;;;;;;9.84;59.72;99009.91;4411103;32;20196;-88
2022/11/05 05:22:42;;;;;;;5.32;2.65;;;;;;;9.98;59.73;99028.38;4425955;32;20111;-88
2022/11/05 05:25:08;;;;;;;4.72;2.78;;;;;;;9.85;59.72;99037.59;4423696;32;33761;-88
2022/11/05 05:27:33;;;;;;;4.45;3.00;;;;;;;9.84;59.72;99035.88;4425624;32;20161;-87
2022/11/05 05:29:59;;;;;;;3.15;2.25;;;;;;;9.86;59.72;99036.66;4425840;32;22019;-88
2022/11/05 05:32:24;;;;;;;3.97;2.47;;;;;;;9.91;59.73;99042.53;4413407;32;20439;-89
2022/11/05 05:34:50;;;;;;;3.95;2.47;;;;;;;9.78;59.71;99047.38;4413563;32;20097;-90
2022/11/05 05:37:15;;;;;;;3.75;2.58;;;;;;;9.77;59.71;99047.44;4413886;32;20169;-89
2022/11/05 05:39:43;;;;;;;3.78;2.62;;;;;;;9.85;59.72;99045.38;4427344;32;20442;-89
2022/11/05 05:42:09;;;;;;;4.32;2.62;;;;;;;9.95;59.73;99049.31;4432194;32;20058;-89
2022/11/05 05:44:34;;;;;;;5.72;3.28;;;;;;;9.93;59.73;99048.50;4435458;32;20143;-89
2022/11/05 05:46:59;;;;;;;4.97;3.30;;;;;;;9.94;59.73;99051.97;4427009;32;31329;-89
2022/11/05 05:49:25;;;;;;;5.95;3.05;;;;;;;9.87;59.73;99051.34;4432581;32;20214;-90
2022/11/05 05:51:50;;;;;;;4.50;2.70;;;;;;;10.02;59.73;99065.50;4415512;32;20097;-90
2022/11/05 05:54:15;;;;;;;5.40;2.85;;;;;;;10.03;59.74;99072.41;4425721;32;20101;-91
2022/11/05 05:56:44;;;;;;;4.85;2.75;;;;;;;10.10;59.74;99084.22;4413183;32;20376;-90
2022/11/05 05:59:09;;;;;;;4.50;2.53;;;;;;;10.15;59.73;99092.69;4413076;32;20155;-89
2022/11/05 06:01:35;;;;;;;4.05;2.78;;;;;;;9.91;59.72;99089.31;4425612;32;20144;-89
2022/11/05 06:04:00;;;;;;;3.05;2.33;;;;;;;9.98;59.73;99095.13;4425406;32;20097;-89
2022/11/05 06:06:26;;;;;;;3.28;2.08;;;;;;;10.16;59.73;99104.78;4425664;32;20177;-91
2022/11/05 06:08:51;;;;;;;4.00;2.60;;;;;;;10.16;59.73;99108.22;4425733;32;20160;-90
2022/11/05 06:11:17;;;;;;;3.35;2.12;;;;;;;10.18;59.74;99117.75;4412427;32;20157;-90
2022/11/05 06:13:42;;;;;;;4.28;2.00;;;;;;;10.26;59.75;99121.75;4412315;32;28087;-91
2022/11/05 06:16:08;;;;;;;3.30;1.90;;;;;;;10.16;59.73;99128.19;4411085;32;34249;-90
2022/11/05 06:18:34;;;;;;;4.03;1.85;;;;;;;10.15;59.74;99118.69;4425717;32;20101;-89
2022/11/05 06:21:04;;;;;;;3.70;2.15;;;;;;;10.16;59.75;99147.22;4425338;32;20198;-89
2022/11/05 06:23:30;;;;;;;;;;;;;;;10.08;59.73;99136.31;4413010;32;20194;-89
2022/11/05 06:25:59;;;;;;;3.65;2.10;;;;;;;10.12;59.74;99147.44;4413043;32;19999;-90
2022/11/05 06:28:24;;;;;;;3.53;2.05;;;;;;;10.21;59.74;99144.50;4412881;32;20104;-89
2022/11/05 06:30:50;;;;;;;3.47;2.30;;;;;;;10.22;59.74;99150.56;4412898;32;20114;-90
2022/11/05 06:33:16;;;;;;;6.03;2.05;;;;;;;10.18;59.74;99144.59;4412547;32;20547;-88
2022/11/05 06:35:41;;;;;;;3.37;1.98;;;;;;;10.28;59.74;99145.94;4412698;32;20153;-90
2022/11/05 06:38:06;;;;;;;3.75;2.28;;;;;;;10.21;59.74;99151.47;4412286;32;20150;-90
2022/11/05 06:40:32;;;;;;;2.85;1.65;;;;;;;10.14;59.73;99154.25;4412391;32;26497;-88
2022/11/05 06:42:57;;;;;;;5.00;2.28;;;;;;;10.27;59.74;99166.81;4425404;32;20102;-89
2022/11/05 06:45:23;;;;;;;2.85;2.12;;;;;;;10.13;59.74;99165.56;4425670;32;20410;-90
2022/11/05 06:47:54;;;;;;;2.97;2.20;;;;;;;10.33;59.75;99153.56;4425715;32;20146;-90
2022/11/05 06:50:19;;;;;;;3.47;2.17;;;;;;;10.33;59.75;99157.00;4426079;32;20208;-90
2022/11/05 06:52:55;;;;;;;4.30;2.33;;;;;;;10.40;59.75;99166.25;4412307;32;23402;-89
2022/11/05 06:55:21;;;;;;;3.05;2.00;;;;;;;10.37;59.75;99161.16;4413759;32;20095;-90
2022/11/05 06:57:47;;;;;;;4.22;1.98;;;;;;;10.48;59.76;99172.91;4425595;32;20104;-89
2022/11/05 07:00:13;;;;;;;2.83;2.20;;;;;;;10.51;59.76;99178.00;4425417;32;20483;-89
2022/11/05 07:02:39;;;;;;;3.12;2.17;;;;;;;10.49;59.76;99175.44;4425658;32;20097;-90
2022/11/05 07:05:06;;;;;;;5.03;1.75;;;;;;;10.52;59.75;99175.31;4412480;32;20524;-90
2022/11/05 07:07:31;;;;;;;2.72;2.15;;;;;;;10.67;59.76;99179.06;4425668;32;20131;-90
2022/11/05 07:09:57;;;;;;;2.80;1.80;;;;;;;10.57;59.76;99181.19;4425365;32;20097;-90
2022/11/05 07:12:22;;;;;;;2.62;1.52;;;;;;;10.60;59.76;99181.03;4411888;32;31732;-91
2022/11/05 07:14:47;;;;;;;1.92;1.48;;;;;;;10.60;59.76;99188.00;4425187;32;20113;-88
2022/11/05 07:17:13;;;;;;;3.10;1.92;;;;;;;10.35;59.75;99189.00;4412090;32;32191;-88
2022/11/05 07:19:38;;;;;;;2.47;1.85;;;;;;;10.37;59.75;99189.78;4424949;32;27757;-88
2022/11/05 07:22:03;;;;;;;3.08;1.98;;;;;;;10.26;59.75;99185.94;4412636;32;20082;-88
2022/11/05 07:24:29;;;;;;;2.87;1.75;;;;;;;10.32;59.75;99189.12;4412237;32;25431;-89
2022/11/05 07:26:54;;;;;;;1.75;1.02;;;;;;;10.49;59.76;99196.25;4412380;32;22577;-89
2022/11/05 07:29:20;;;;;;;3.75;1.40;;;;;;;10.56;59.76;99191.66;4411760;32;31751;-89
2022/11/05 07:31:45;;;;;;;4.68;1.58;;;;;;;10.64;59.77;99197.38;4412495;32;20466;-90
2022/11/05 07:34:11;;;;;;;2.05;1.40;;;;;;;10.60;59.76;99186.25;4425474;32;20459;-89
2022/11/05 07:36:38;;;;;;;1.65;1.25;;;;;;;10.63;59.77;99187.88;4425363;32;20176;-90
2022/11/05 07:39:03;;;;;;;3.22;1.45;;;;;;;10.67;59.77;99186.88;4425614;32;20153;-88
2022/11/05 07:41:29;;;;;;;4.43;1.98;;;;;;;10.87;59.78;99184.25;4412505;32;20128;-88
2022/11/05 07:43:54;;;;;;;2.30;1.60;;;;;;;10.94;59.78;99188.31;4424274;32;36623;-89
2022/11/05 07:46:20;;;;;;;10.13;1.92;;;;;;;10.96;59.78;99183.03;4438153;32;20140;-88
2022/11/05 07:48:45;;;;;;;3.87;1.77;;;;;;;10.97;59.78;99184.72;4424389;32;28901;-88
2022/11/05 07:51:10;;;;;;;3.05;1.90;;;;;;;10.94;59.78;99187.47;4425028;32;20112;-87
2022/11/05 07:53:36;;;;;;;2.53;1.55;;;;;;;10.95;59.78;99182.19;4437553;32;30699;-88
2022/11/05 07:56:01;;;;;;;2.72;1.70;;;;;;;11.14;59.79;99184.03;4412166;32;20121;-88
2022/11/05 07:58:26;;;;;;;4.07;2.00;;;;;;;11.06;59.78;99187.78;4399022;32;28232;-88
2022/11/05 08:00:52;;;;;;;2.22;1.52;;;;;;;11.14;59.79;99182.25;4424558;32;27388;-88
2022/11/05 08:03:17;;;;;;;2.25;1.40;;;;;;;11.15;59.79;99183.09;4424091;32;20141;-88
2022/11/05 08:05:45;;;;;;;3.08;1.30;;;;;;;11.37;59.81;99169.06;4439099;32;20105;-88
2022/11/05 08:08:12;;;;;;;3.28;1.70;;;;;;;11.62;59.82;99168.81;4412587;32;20089;-88
2022/11/05 08:10:37;;;;;;;2.97;1.70;;;;;;;11.56;59.81;99163.84;4411661;32;20089;-88
2022/11/05 08:13:03;;;;;;;3.90;1.92;;;;;;;11.62;59.82;99171.41;4412104;32;20136;-87
2022/11/05 08:15:28;;;;;;;2.20;1.60;;;;;;;11.66;59.82;99164.31;4412174;32;20110;-88
2022/11/05 08:17:59;;;;;;;1.77;1.45;;;;;;;11.50;59.81;99166.75;4424117;32;35375;-88
2022/11/05 08:20:25;;;;;;;9.43;1.77;;;;;;;11.59;59.82;99160.25;4425256;32;20093;-88
2022/11/05 08:22:51;;;;;;;2.30;1.62;;;;;;;11.63;59.82;99159.22;4412604;32;20133;-88
2022/11/05 08:25:16;;;;;;;8.15;1.85;;;;;;;11.80;59.82;99156.69;4426402;32;34872;-88
2022/11/05 08:27:41;;;;;;;4.18;1.90;;;;;;;11.87;59.83;99147.69;4433471;32;21391;-88
2022/11/05 08:30:07;;;;;;;2.55;1.60;;;;;;;11.68;59.81;99152.03;4430610;32;20144;-89
2022/11/05 08:32:33;;;;;;;2.25;1.60;;;;;;;11.61;59.82;99148.88;4454636;32;20096;-89
2022/11/05 08:34:58;;;;;;;2.95;1.70;;;;;;;11.55;59.81;99159.56;4429222;32;20119;-89
2022/11/05 08:37:24;;;;;;;3.92;1.95;;;;;;;11.59;59.81;99165.47;4433269;32;20088;-90
2022/11/05 08:39:49;;;;;;;3.12;1.85;;;;;;;11.50;59.81;99169.34;4442883;32;20143;-91
2022/11/05 08:42:15;;;;;;;3.75;2.15;;;;;;;11.56;59.81;99158.62;4415154;32;30668;-90
2022/11/05 08:44:40;;;;;;;3.92;2.00;;;;;;;11.58;59.81;99158.56;4413530;32;20108;-89
2022/11/05 08:47:05;;;;;;;4.78;2.08;;;;;;;11.54;59.82;99157.88;4425292;32;21878;-90
2022/11/05 08:49:31;;;;;;;2.62;1.95;;;;;;;11.63;59.82;99169.66;4412940;32;20121;-88
2022/11/05 08:51:56;;;;;;;2.60;2.00;;;;;;;11.49;59.81;99174.62;4424917;32;32031;-89
2022/11/05 08:54:21;;;;;;;2.40;1.58;;;;;;;11.44;59.80;99176.59;4423831;32;23949;-89
2022/11/05 08:56:47;;;;;;;2.70;1.87;;;;;;;11.68;59.81;99167.69;4422629;32;20130;-89
2022/11/05 08:59:12;;;;;;;3.42;2.15;;;;;;;11.81;59.82;99170.59;4415851;32;20454;-88
2022/11/05 09:01:38;;;;;;;4.03;2.30;;;;;;;11.90;59.83;99170.19;4426904;32;20196;-88
2022/11/05 09:04:03;;;;;;;4.72;2.35;;;;;;;11.79;59.83;99186.31;4438827;32;28785;-89
2022/11/05 09:06:28;;;;;;;4.55;2.15;;;;;;;11.82;59.83;99180.09;4431146;32;32653;-88
2022/11/05 09:08:54;;;;;;;2.50;1.98;;;;;;;11.90;59.84;99184.06;4412972;32;20160;-89
2022/11/05 09:11:19;;;;;;;3.17;2.10;;;;;;;11.91;59.84;99196.19;4411249;32;20423;-88
2022/11/05 09:13:45;;;;;;;2.75;1.95;;;;;;;11.84;59.83;99194.78;4410030;32;20149;-89
2022/11/05 09:16:24;;;;;;;3.60;1.98;;;;;;;11.97;59.84;99200.25;4428245;32;20409;-89
2022/11/05 09:18:49;;;;;;;3.05;1.90;;;;;;;11.94;59.84;99205.63;4415115;32;20185;-89
2022/11/05 09:21:16;;;;;;;3.35;2.17;;;;;;;11.86;59.84;99198.16;4427535;32;20117;-89
2022/11/05 09:23:41;;;;;;;3.58;2.37;;;;;;;12.12;59.83;99207.38;4415044;32;20131;-89
2022/11/05 09:26:08;;;;;;;2.72;1.80;;;;;;;12.13;59.84;99208.22;4414495;32;20117;-88
2022/11/05 09:28:33;;;;;;;4.78;2.10;;;;;;;12.25;59.85;99203.25;4415046;32;20483;-89
2022/11/05 09:30:59;;;;;;;2.65;2.17;;;;;;;12.23;59.86;99205.09;4414563;32;20136;-89
2022/11/05 09:33:25;;;;;;;4.68;2.35;;;;;;;12.25;59.85;99216.31;4427367;32;20124;-90
2022/11/05 09:35:51;;;;;;;3.90;2.30;;;;;;;12.15;59.85;99216.84;4427538;32;20093;-90
2022/11/05 09:38:16;;;;;;;3.00;2.30;;;;;;;12.20;59.84;99215.69;4440401;32;20137;-90
2022/11/05 09:40:53;;;;;;;3.17;2.33;;;;;;;12.23;59.85;99212.94;4414025;32;28188;-89
2022/11/05 09:43:20;;;;;;;3.85;2.35;;;;;;;12.37;59.86;99207.06;4421393;32;20603;-89
2022/11/05 09:45:50;;;;;;;3.30;2.33;;;;;;;12.18;59.85;99212.31;4410318;32;20093;-90
2022/11/05 09:48:15;;;;;;;;;;;;;;;12.21;59.86;99196.50;4415638;32;20116;-90
2022/11/05 09:50:44;;;;;;;3.37;2.20;;;;;;;12.32;59.85;99195.16;4425215;32;19985;-90
2022/11/05 09:53:12;;;;;;;4.45;2.97;;;;;;;12.39;59.86;99197.41;4413306;32;20528;-90
2022/11/05 09:55:41;;;;;;;3.42;2.33;;;;;;;12.43;59.86;99213.75;4426185;32;20081;-90
2022/11/05 09:58:42;;;;;;;3.58;2.25;;;;;;;12.35;59.85;99210.69;4413557;32;20138;-90
2022/11/05 10:01:14;;;;;;;4.60;2.40;;;;;;;12.47;59.86;99197.00;4425802;32;20110;-89
2022/11/05 10:03:45;;;;;;;7.20;2.62;;;;;;;12.59;59.87;99199.88;4413347;32;20109;-90
2022/11/05 10:06:12;;;;;;;5.60;4.20;;;;;;;12.69;59.88;99197.66;4413305;32;20111;-90
2022/11/05 10:08:41;;;;;;;4.47;2.47;;;;;;;12.89;59.88;99207.13;4412977;32;20081;-89
2022/11/05 10:11:09;;;;;;;3.83;2.60;;;;;;;12.77;59.88;99195.50;4425296;32;20157;-91
2022/11/05 10:13:49;;;;;;;5.30;2.45;;;;;;;12.71;59.87;99193.22;4425501;32;20491;-90
2022/11/05 10:16:34;;;;;;;3.45;2.42;;;;;;;12.82;59.89;99196.16;4413318;32;20709;-91
2022/11/05 10:19:26;;;;;;;6.15;2.58;;;;;;;12.85;59.88;99206.44;4426305;32;20104;-90
2022/11/05 10:22:08;;;;;;;4.60;2.92;;;;;;;12.91;59.89;99206.13;4426782;32;20102;-89
2022/11/05 10:24:33;;;;;;;4.72;2.92;;;;;;;12.86;59.88;99202.06;4413856;32;20512;-90
2022/11/05 10:26:59;;;;;;;3.67;2.60;;;;;;;12.90;59.89;99203.59;4413002;32;20133;-91
2022/11/05 10:29:28;;;;;;;3.83;2.75;;;;;;;13.20;59.91;99191.59;4425686;32;20153;-90
2022/11/05 10:31:53;;;;;;;5.35;2.70;;;;;;;13.20;59.91;99193.37;4425796;32;20159;-89
2022/11/05 10:34:19;;;;;;;6.53;2.83;;;;;;;13.39;59.91;99195.88;4412656;32;20110;-90
2022/11/05 10:36:45;;;;;;;3.78;2.58;;;;;;;13.42;59.92;99193.94;4425813;32;20153;-89
2022/11/05 10:39:12;;;;;;;4.68;2.70;;;;;;;13.23;59.90;99197.59;4412321;32;22078;-91
2022/11/05 10:41:53;;;;;;;5.72;3.33;;;;;;;13.19;59.91;99189.91;4413799;32;20471;-90
2022/11/05 10:44:30;;;;;;;5.43;2.37;;;;;;;13.27;59.91;99194.75;4414058;32;20135;-91
2022/11/05 10:47:23;;;;;;;5.78;2.97;;;;;;;13.45;59.92;99187.72;4425860;32;20097;-89
2022/11/05 10:50:02;;;;;;;4.35;2.75;;;;;;;13.53;59.92;99196.00;4425657;32;20160;-90
2022/11/05 10:52:33;;;;;;;3.90;2.65;;;;;;;13.30;59.91;99199.84;4412568;32;20446;-89
2022/11/05 10:55:01;;;;;;;5.45;2.55;;;;;;;13.15;59.90;99201.41;4425887;32;20109;-91
2022/11/05 10:57:33;;;;;;;4.90;3.35;;;;;;;12.95;59.89;99196.34;4425861;32;20084;-90
2022/11/05 11:00:17;;;;;;;6.10;2.78;;;;;;;13.06;59.90;99206.28;4426477;32;20154;-91
2022/11/05 11:02:45;;;;;;;3.12;2.42;;;;;;;12.96;59.88;99218.09;4439778;32;20089;-90
2022/11/05 11:05:10;;;;;;;4.45;2.70;;;;;;;12.86;59.88;99217.72;4413121;32;20139;-90
2022/11/05 11:07:35;;;;;;;3.08;2.72;;;;;;;13.24;59.90;99212.34;4412916;32;22398;-90
2022/11/05 11:10:01;;;;;;;3.75;2.50;;;;;;;13.37;59.91;99206.41;4412709;32;21960;-88
2022/11/05 11:12:30;;;;;;;4.18;3.12;;;;;;;13.44;59.92;99207.78;4413086;32;32017;-90
2022/11/05 11:15:04;;;;;;;3.85;2.65;;;;;;;13.49;59.92;99194.50;4414558;32;20132;-92
2022/11/05 11:17:30;;;;;;;3.65;2.92;;;;;;;13.49;59.92;99197.09;4420295;32;20053;-92
2022/11/05 11:20:24;;;;;;;4.35;2.97;;;;;;;13.50;59.92;99197.03;4428457;32;20209;-91
2022/11/05 11:23:12;;;;;;;5.30;3.55;;;;;;;13.43;59.92;99190.41;4425218;32;20067;-90
2022/11/05 11:25:51;;;;;;;3.92;2.97;;;;;;;13.25;59.90;99194.00;4430819;32;20119;-90
2022/11/05 11:28:24;;;;;;;3.80;2.95;;;;;;;13.31;59.91;99201.53;4416107;32;20111;-90
2022/11/05 11:31:10;;;;;;;7.45;3.17;;;;;;;13.42;59.92;99206.19;4412819;32;20093;-90
2022/11/05 11:33:36;;;;;;;4.43;2.80;;;;;;;13.55;59.92;99209.84;4427367;32;20089;-90
2022/11/05 11:36:05;;;;;;;4.97;3.20;;;;;;;13.79;59.93;99215.56;4411975;32;20489;-92
2022/11/05 11:38:32;;;;;;;3.47;2.70;;;;;;;13.51;59.92;99200.47;4413540;32;20071;-91
2022/11/05 11:41:10;;;;;;;4.82;2.92;;;;;;;13.72;59.93;99195.84;4412876;32;20101;-90
2022/11/05 11:43:37;;;;;;;11.52;2.72;;;;;;;13.64;59.92;99196.28;4439050;32;20119;-89
2022/11/05 11:46:04;;;;;;;5.05;3.00;;;;;;;13.67;59.93;99201.34;4425906;32;20139;-90
2022/11/05 11:48:34;;;;;;;3.45;2.72;;;;;;;13.24;59.90;99201.91;4413013;32;20251;-94
2022/11/05 11:50:59;;;;;;;3.20;2.05;;;;;;;13.33;59.91;99204.06;4412634;32;20077;-92
2022/11/05 11:53:27;;;;;;;6.93;2.67;;;;;;;13.56;59.92;99198.47;4424906;32;20173;-91
2022/11/05 11:56:05;;;;;;;3.70;2.80;;;;;;;13.30;59.91;99191.16;4412719;32;20178;-92
2022/11/05 11:58:36;;;;;;;3.90;2.45;;;;;;;13.51;59.93;99182.19;4426113;32;20081;-91
2022/11/05 12:01:16;;;;;;;3.08;2.70;;;;;;;13.50;59.93;99196.19;4412399;32;20098;-91
2022/11/05 12:03:50;;;;;;;3.42;2.53;;;;;;;13.42;59.92;99208.78;4413733;32;20113;-91
2022/11/05 12:07:00;;;;;;;3.70;2.87;;;;;;;13.52;59.92;99207.41;4425363;32;20119;-90
2022/11/05 12:09:44;;;;;;;3.70;2.40;;;;;;;13.52;59.93;99205.63;4439065;32;20100;-92
2022/11/05 12:12:14;;;;;;;6.28;2.58;;;;;;;13.85;59.94;99209.13;4424814;32;20634;-91
2022/11/05 12:15:03;;;;;;;4.47;2.40;;;;;;;13.70;59.93;99198.56;4412514;32;20104;-91
2022/11/05 12:17:31;;;;;;;7.47;2.37;;;;;;;13.88;59.95;99190.66;4412264;32;20525;-92
2022/11/05 12:20:03;;;;;;;4.03;2.75;;;;;;;13.77;59.93;99213.03;4424784;32;20164;-91
2022/11/05 12:22:52;;;;;;;3.05;2.28;;;;;;;13.90;59.94;99214.97;4424761;32;20073;-92
2022/11/05 12:25:21;;;;;;;3.08;2.58;;;;;;;13.87;59.93;99223.81;4427048;32;20124;-91
2022/11/05 12:27:57;;;;;;;2.83;2.33;;;;;;;14.03;59.96;99223.84;4412059;32;20119;-91
2022/11/05 12:30:22;;;;;;;3.15;2.33;;;;;;;14.23;59.96;99228.00;4411839;32;20081;-92
2022/11/05 12:33:06;;;;;;;3.95;2.50;;;;;;;14.13;59.95;99222.41;4411664;32;20168;-91